sensor_id;sensor_type;location;lat;lon;timestamp;temperature;humidity
54082;DHT22;39986;50.770;0.266;2023-04-01T00:01:57;10.20;99.90
54082;DHT22;39986;50.770;0.266;2023-04-01T00:04:22;10.10;99.90
54082;DHT22;39986;50.770;0.266;2023-04-01T00:06:48;10.20;99.90
54082;DHT22;39986;50.770;0.266;2023-04-01T00:09:13;10.20;99.90
54082;DHT22;39986;50.770;0.266;2023-04-01T00:11:39;10.20;99.90
54082;DHT22;39986;50.770;0.266;2023-04-01T00:14:06;10.20;99.90
54082;DHT22;39986;50.770;0.266;2023-04-01T00:16:32;10.20;99.90
54082;DHT22;39986;50.770;0.266;2023-04-01T00:18:57;10.20;99.90
54082;DHT22;39986;50.770;0.266;2023-04-01T00:21:23;10.20;99.90
54082;DHT22;39986;50.770;0.266;2023-04-01T00:23:49;10.20;99.90
54082;DHT22;39986;50.770;0.266;2023-04-01T00:26:15;10.30;99.90
54082;DHT22;39986;50.770;0.266;2023-04-01T00:28:44;10.20;99.90
54082;DHT22;39986;50.770;0.266;2023-04-01T00:31:10;10.20;99.90
54082;DHT22;39986;50.770;0.266;2023-04-01T00:33:36;10.20;99.90
54082;DHT22;39986;50.770;0.266;2023-04-01T00:36:06;10.40;99.90
54082;DHT22;39986;50.770;0.266;2023-04-01T00:38:31;10.20;99.90
54082;DHT22;39986;50.770;0.266;2023-04-01T00:40:57;10.20;99.90
54082;DHT22;39986;50.770;0.266;2023-04-01T00:43:23;10.20;99.90
54082;DHT22;39986;50.770;0.266;2023-04-01T00:45:49;10.20;99.90
54082;DHT22;39986;50.770;0.266;2023-04-01T00:48:19;10.20;99.90
54082;DHT22;39986;50.770;0.266;2023-04-01T00:50:49;10.20;99.90
54082;DHT22;39986;50.770;0.266;2023-04-01T00:53:16;10.20;99.90
54082;DHT22;39986;50.770;0.266;2023-04-01T00:55:45;10.30;99.90
54082;DHT22;39986;50.770;0.266;2023-04-01T00:58:14;10.20;99.90
54082;DHT22;39986;50.770;0.266;2023-04-01T01:00:40;10.20;99.90
54082;DHT22;39986;50.770;0.266;2023-04-01T01:03:05;10.20;99.90
54082;DHT22;39986;50.770;0.266;2023-04-01T01:05:45;10.30;99.90
54082;DHT22;39986;50.770;0.266;2023-04-01T01:11:01;10.20;99.90
54082;DHT22;39986;50.770;0.266;2023-04-01T01:13:34;10.30;99.90
54082;DHT22;39986;50.770;0.266;2023-04-01T01:16:06;10.20;99.90
54082;DHT22;39986;50.770;0.266;2023-04-01T01:18:43;10.20;99.90
54082;DHT22;39986;50.770;0.266;2023-04-01T01:21:19;10.20;99.90
54082;DHT22;39986;50.770;0.266;2023-04-01T01:34:14;10.20;99.90
54082;DHT22;39986;50.770;0.266;2023-04-01T01:36:42;10.20;99.90
54082;DHT22;39986;50.770;0.266;2023-04-01T01:39:10;10.30;99.90
54082;DHT22;39986;50.770;0.266;2023-04-01T01:41:37;10.30;99.90
54082;DHT22;39986;50.770;0.266;2023-04-01T01:44:06;10.30;99.90
54082;DHT22;39986;50.770;0.266;2023-04-01T01:46:32;10.20;99.90
54082;DHT22;39986;50.770;0.266;2023-04-01T01:48:58;10.30;99.90
54082;DHT22;39986;50.770;0.266;2023-04-01T01:51:25;10.20;99.90
54082;DHT22;39986;50.770;0.266;2023-04-01T01:53:52;10.20;99.90
54082;DHT22;39986;50.770;0.266;2023-04-01T01:56:18;10.20;99.90
54082;DHT22;39986;50.770;0.266;2023-04-01T01:58:45;10.20;99.90
54082;DHT22;39986;50.770;0.266;2023-04-01T02:01:35;10.20;99.90
54082;DHT22;39986;50.770;0.266;2023-04-01T02:03:58;10.20;99.90
54082;DHT22;39986;50.770;0.266;2023-04-01T02:06:25;10.20;99.90
54082;DHT22;39986;50.770;0.266;2023-04-01T02:09:05;10.20;99.90
54082;DHT22;39986;50.770;0.266;2023-04-01T02:11:33;10.20;99.90
54082;DHT22;39986;50.770;0.266;2023-04-01T02:16:32;10.20;99.90
54082;DHT22;39986;50.770;0.266;2023-04-01T02:18:59;10.20;99.90
54082;DHT22;39986;50.770;0.266;2023-04-01T02:21:27;10.20;99.90
54082;DHT22;39986;50.770;0.266;2023-04-01T02:23:55;10.20;99.90
54082;DHT22;39986;50.770;0.266;2023-04-01T02:26:22;10.10;99.90
54082;DHT22;39986;50.770;0.266;2023-04-01T02:28:48;10.20;99.90
54082;DHT22;39986;50.770;0.266;2023-04-01T02:31:14;10.20;99.90
54082;DHT22;39986;50.770;0.266;2023-04-01T02:33:40;10.20;99.90
54082;DHT22;39986;50.770;0.266;2023-04-01T02:36:07;10.20;99.90
54082;DHT22;39986;50.770;0.266;2023-04-01T02:38:35;10.20;99.90
54082;DHT22;39986;50.770;0.266;2023-04-01T02:41:01;10.20;99.90
54082;DHT22;39986;50.770;0.266;2023-04-01T02:43:27;10.20;99.90
54082;DHT22;39986;50.770;0.266;2023-04-01T02:45:53;10.20;99.90
54082;DHT22;39986;50.770;0.266;2023-04-01T02:48:19;10.20;99.90
54082;DHT22;39986;50.770;0.266;2023-04-01T02:50:45;10.20;99.90
54082;DHT22;39986;50.770;0.266;2023-04-01T02:53:11;10.20;99.90
54082;DHT22;39986;50.770;0.266;2023-04-01T02:55:37;10.20;99.90
54082;DHT22;39986;50.770;0.266;2023-04-01T02:58:02;10.20;99.90
54082;DHT22;39986;50.770;0.266;2023-04-01T03:00:28;10.20;99.90
54082;DHT22;39986;50.770;0.266;2023-04-01T03:02:55;10.20;99.90
54082;DHT22;39986;50.770;0.266;2023-04-01T03:05:22;10.20;99.90
54082;DHT22;39986;50.770;0.266;2023-04-01T03:07:47;10.20;99.90
54082;DHT22;39986;50.770;0.266;2023-04-01T03:10:13;10.20;99.90
54082;DHT22;39986;50.770;0.266;2023-04-01T03:12:39;10.20;99.90
54082;DHT22;39986;50.770;0.266;2023-04-01T03:15:04;10.20;99.90
54082;DHT22;39986;50.770;0.266;2023-04-01T03:17:30;10.20;99.90
54082;DHT22;39986;50.770;0.266;2023-04-01T03:19:56;10.20;99.90
54082;DHT22;39986;50.770;0.266;2023-04-01T03:22:21;10.20;99.90
54082;DHT22;39986;50.770;0.266;2023-04-01T03:24:48;10.20;99.90
54082;DHT22;39986;50.770;0.266;2023-04-01T03:27:13;10.20;99.90
54082;DHT22;39986;50.770;0.266;2023-04-01T03:29:39;10.10;99.90
54082;DHT22;39986;50.770;0.266;2023-04-01T03:32:04;10.00;99.90
54082;DHT22;39986;50.770;0.266;2023-04-01T03:34:30;10.20;99.90
54082;DHT22;39986;50.770;0.266;2023-04-01T03:36:56;10.20;99.90
54082;DHT22;39986;50.770;0.266;2023-04-01T03:39:21;10.10;99.90
54082;DHT22;39986;50.770;0.266;2023-04-01T03:41:47;10.20;99.90
54082;DHT22;39986;50.770;0.266;2023-04-01T03:44:12;10.20;99.90
54082;DHT22;39986;50.770;0.266;2023-04-01T03:46:38;10.20;99.90
54082;DHT22;39986;50.770;0.266;2023-04-01T03:49:08;10.20;99.90
54082;DHT22;39986;50.770;0.266;2023-04-01T03:51:37;10.20;99.90
54082;DHT22;39986;50.770;0.266;2023-04-01T03:54:02;10.20;99.90
54082;DHT22;39986;50.770;0.266;2023-04-01T03:56:28;10.30;99.90
54082;DHT22;39986;50.770;0.266;2023-04-01T03:58:53;10.20;99.90
54082;DHT22;39986;50.770;0.266;2023-04-01T04:01:20;10.20;99.90
54082;DHT22;39986;50.770;0.266;2023-04-01T04:03:46;10.20;99.90
54082;DHT22;39986;50.770;0.266;2023-04-01T04:06:12;10.20;99.90
54082;DHT22;39986;50.770;0.266;2023-04-01T04:08:38;10.20;99.90
54082;DHT22;39986;50.770;0.266;2023-04-01T04:11:04;10.20;99.90
54082;DHT22;39986;50.770;0.266;2023-04-01T04:13:29;10.20;99.90
54082;DHT22;39986;50.770;0.266;2023-04-01T04:15:55;10.20;99.90
54082;DHT22;39986;50.770;0.266;2023-04-01T04:18:20;10.20;99.90
54082;DHT22;39986;50.770;0.266;2023-04-01T04:20:46;10.20;99.90
54082;DHT22;39986;50.770;0.266;2023-04-01T04:23:16;10.20;99.90
54082;DHT22;39986;50.770;0.266;2023-04-01T04:25:52;10.10;99.90
54082;DHT22;39986;50.770;0.266;2023-04-01T04:28:18;10.10;99.90
54082;DHT22;39986;50.770;0.266;2023-04-01T04:30:43;10.20;99.90
54082;DHT22;39986;50.770;0.266;2023-04-01T04:33:09;10.20;99.90
54082;DHT22;39986;50.770;0.266;2023-04-01T04:35:34;10.10;99.90
54082;DHT22;39986;50.770;0.266;2023-04-01T04:38:00;10.10;99.90
54082;DHT22;39986;50.770;0.266;2023-04-01T04:40:25;10.10;99.90
54082;DHT22;39986;50.770;0.266;2023-04-01T04:42:51;10.20;99.90
54082;DHT22;39986;50.770;0.266;2023-04-01T04:45:16;10.10;99.90
54082;DHT22;39986;50.770;0.266;2023-04-01T04:47:42;10.10;99.90
54082;DHT22;39986;50.770;0.266;2023-04-01T04:50:07;10.20;99.90
54082;DHT22;39986;50.770;0.266;2023-04-01T04:52:33;10.10;99.90
54082;DHT22;39986;50.770;0.266;2023-04-01T04:54:59;10.10;99.90
54082;DHT22;39986;50.770;0.266;2023-04-01T04:57:24;10.10;99.90
54082;DHT22;39986;50.770;0.266;2023-04-01T04:59:50;10.10;99.90
54082;DHT22;39986;50.770;0.266;2023-04-01T05:02:15;10.20;99.90
54082;DHT22;39986;50.770;0.266;2023-04-01T05:04:41;10.10;99.90
54082;DHT22;39986;50.770;0.266;2023-04-01T05:07:06;10.20;99.90
54082;DHT22;39986;50.770;0.266;2023-04-01T05:09:32;10.10;99.90
54082;DHT22;39986;50.770;0.266;2023-04-01T05:11:59;10.10;99.90
54082;DHT22;39986;50.770;0.266;2023-04-01T05:14:24;10.20;99.90
54082;DHT22;39986;50.770;0.266;2023-04-01T05:16:50;10.20;99.90
54082;DHT22;39986;50.770;0.266;2023-04-01T05:19:15;10.10;99.90
54082;DHT22;39986;50.770;0.266;2023-04-01T05:21:41;10.10;99.90
54082;DHT22;39986;50.770;0.266;2023-04-01T05:24:07;10.10;99.90
54082;DHT22;39986;50.770;0.266;2023-04-01T05:26:33;10.10;99.90
54082;DHT22;39986;50.770;0.266;2023-04-01T05:28:59;10.20;99.90
54082;DHT22;39986;50.770;0.266;2023-04-01T05:31:24;10.10;99.90
54082;DHT22;39986;50.770;0.266;2023-04-01T05:33:51;10.10;99.90
54082;DHT22;39986;50.770;0.266;2023-04-01T05:36:16;10.10;99.90
54082;DHT22;39986;50.770;0.266;2023-04-01T05:38:42;10.00;99.90
54082;DHT22;39986;50.770;0.266;2023-04-01T05:41:08;10.00;99.90
54082;DHT22;39986;50.770;0.266;2023-04-01T05:43:37;10.10;99.90
54082;DHT22;39986;50.770;0.266;2023-04-01T05:46:03;10.10;99.90
54082;DHT22;39986;50.770;0.266;2023-04-01T05:48:28;10.10;99.90
54082;DHT22;39986;50.770;0.266;2023-04-01T05:50:54;10.10;99.90
54082;DHT22;39986;50.770;0.266;2023-04-01T05:53:19;10.00;99.90
54082;DHT22;39986;50.770;0.266;2023-04-01T05:55:45;10.00;99.90
54082;DHT22;39986;50.770;0.266;2023-04-01T05:58:10;10.00;99.90
54082;DHT22;39986;50.770;0.266;2023-04-01T06:00:36;10.00;99.90
54082;DHT22;39986;50.770;0.266;2023-04-01T06:03:01;10.10;99.90
54082;DHT22;39986;50.770;0.266;2023-04-01T06:05:28;10.10;99.90
54082;DHT22;39986;50.770;0.266;2023-04-01T06:08:15;10.20;99.90
54082;DHT22;39986;50.770;0.266;2023-04-01T06:11:23;10.00;99.90
54082;DHT22;39986;50.770;0.266;2023-04-01T06:16:10;10.00;99.90
54082;DHT22;39986;50.770;0.266;2023-04-01T06:26:10;9.80;99.90
54082;DHT22;39986;50.770;0.266;2023-04-01T06:28:46;9.90;99.90
54082;DHT22;39986;50.770;0.266;2023-04-01T06:39:13;9.90;99.90
54082;DHT22;39986;50.770;0.266;2023-04-01T06:44:22;10.00;99.90
54082;DHT22;39986;50.770;0.266;2023-04-01T06:49:28;10.00;99.90
54082;DHT22;39986;50.770;0.266;2023-04-01T06:52:18;10.00;99.90
54082;DHT22;39986;50.770;0.266;2023-04-01T06:57:37;10.10;99.90
54082;DHT22;39986;50.770;0.266;2023-04-01T07:00:11;10.10;99.90
54082;DHT22;39986;50.770;0.266;2023-04-01T07:02:39;10.10;99.90
54082;DHT22;39986;50.770;0.266;2023-04-01T07:05:06;10.10;99.90
54082;DHT22;39986;50.770;0.266;2023-04-01T07:09:58;10.30;99.90
54082;DHT22;39986;50.770;0.266;2023-04-01T07:15:01;10.30;99.90
54082;DHT22;39986;50.770;0.266;2023-04-01T07:17:30;10.30;99.90
54082;DHT22;39986;50.770;0.266;2023-04-01T07:19:59;10.30;99.90
54082;DHT22;39986;50.770;0.266;2023-04-01T07:22:34;10.20;99.90
54082;DHT22;39986;50.770;0.266;2023-04-01T07:25:13;10.20;99.90
54082;DHT22;39986;50.770;0.266;2023-04-01T07:27:40;10.20;99.90
54082;DHT22;39986;50.770;0.266;2023-04-01T07:30:13;10.30;99.90
54082;DHT22;39986;50.770;0.266;2023-04-01T07:32:40;10.30;99.90
54082;DHT22;39986;50.770;0.266;2023-04-01T07:43:20;10.60;99.90
54082;DHT22;39986;50.770;0.266;2023-04-01T07:53:36;11.10;99.90
54082;DHT22;39986;50.770;0.266;2023-04-01T07:56:08;11.20;99.90
54082;DHT22;39986;50.770;0.266;2023-04-01T08:01:23;11.20;99.90
54082;DHT22;39986;50.770;0.266;2023-04-01T08:06:41;11.60;99.90
54082;DHT22;39986;50.770;0.266;2023-04-01T08:11:57;12.00;99.90
54082;DHT22;39986;50.770;0.266;2023-04-01T08:14:33;12.10;99.90
54082;DHT22;39986;50.770;0.266;2023-04-01T08:20:14;12.20;99.90
54082;DHT22;39986;50.770;0.266;2023-04-01T08:22:45;12.30;99.90
54082;DHT22;39986;50.770;0.266;2023-04-01T08:25:17;12.30;99.90
54082;DHT22;39986;50.770;0.266;2023-04-01T08:27:48;12.30;99.90
54082;DHT22;39986;50.770;0.266;2023-04-01T08:30:17;12.50;99.90
54082;DHT22;39986;50.770;0.266;2023-04-01T08:32:45;12.50;99.90
54082;DHT22;39986;50.770;0.266;2023-04-01T08:37:39;12.60;99.90
54082;DHT22;39986;50.770;0.266;2023-04-01T08:40:16;12.50;99.90
54082;DHT22;39986;50.770;0.266;2023-04-01T08:43:27;12.60;99.90
54082;DHT22;39986;50.770;0.266;2023-04-01T08:48:07;12.50;99.90
54082;DHT22;39986;50.770;0.266;2023-04-01T08:50:36;12.50;99.90
54082;DHT22;39986;50.770;0.266;2023-04-01T08:53:14;12.40;99.90
54082;DHT22;39986;50.770;0.266;2023-04-01T09:11:26;12.70;99.90
54082;DHT22;39986;50.770;0.266;2023-04-01T09:16:24;13.50;99.90
54082;DHT22;39986;50.770;0.266;2023-04-01T09:34:30;14.70;99.90
54082;DHT22;39986;50.770;0.266;2023-04-01T09:39:35;14.80;99.90
54082;DHT22;39986;50.770;0.266;2023-04-01T09:44:34;15.20;99.90
54082;DHT22;39986;50.770;0.266;2023-04-01T09:57:30;15.00;99.90
54082;DHT22;39986;50.770;0.266;2023-04-01T10:05:29;14.80;99.90
54082;DHT22;39986;50.770;0.266;2023-04-01T10:13:08;14.50;99.90
54082;DHT22;39986;50.770;0.266;2023-04-01T10:16:02;14.20;99.90
54082;DHT22;39986;50.770;0.266;2023-04-01T10:18:46;13.90;99.90
54082;DHT22;39986;50.770;0.266;2023-04-01T10:36:47;13.30;99.90
54082;DHT22;39986;50.770;0.266;2023-04-01T10:39:20;13.60;99.90
54082;DHT22;39986;50.770;0.266;2023-04-01T10:54:45;13.60;99.90
54082;DHT22;39986;50.770;0.266;2023-04-01T10:57:31;13.50;99.90
54082;DHT22;39986;50.770;0.266;2023-04-01T11:16:14;14.40;99.90
54082;DHT22;39986;50.770;0.266;2023-04-01T11:39:59;14.90;99.90
54082;DHT22;39986;50.770;0.266;2023-04-01T11:44:36;15.10;99.90
54082;DHT22;39986;50.770;0.266;2023-04-01T11:55:06;15.40;99.90
54082;DHT22;39986;50.770;0.266;2023-04-01T12:03:17;15.80;99.90
54082;DHT22;39986;50.770;0.266;2023-04-01T12:08:31;16.30;99.90
54082;DHT22;39986;50.770;0.266;2023-04-01T12:11:00;16.50;99.90
54082;DHT22;39986;50.770;0.266;2023-04-01T12:13:36;16.60;99.90
54082;DHT22;39986;50.770;0.266;2023-04-01T12:16:09;16.60;99.90
54082;DHT22;39986;50.770;0.266;2023-04-01T12:18:46;16.50;99.90
54082;DHT22;39986;50.770;0.266;2023-04-01T12:39:36;16.40;99.90
54082;DHT22;39986;50.770;0.266;2023-04-01T12:42:12;16.30;99.90
54082;DHT22;39986;50.770;0.266;2023-04-01T12:48:29;16.50;99.90
54082;DHT22;39986;50.770;0.266;2023-04-01T12:53:28;16.10;99.90
54082;DHT22;39986;50.770;0.266;2023-04-01T12:56:02;15.90;99.90
54082;DHT22;39986;50.770;0.266;2023-04-01T13:21:33;26.30;99.90
54082;DHT22;39986;50.770;0.266;2023-04-01T13:24:44;25.10;99.90
54082;DHT22;39986;50.770;0.266;2023-04-01T13:26:58;23.80;99.90
54082;DHT22;39986;50.770;0.266;2023-04-01T13:29:34;22.90;99.90
54082;DHT22;39986;50.770;0.266;2023-04-01T13:32:14;22.60;99.90
54082;DHT22;39986;50.770;0.266;2023-04-01T13:34:55;22.60;99.90
54082;DHT22;39986;50.770;0.266;2023-04-01T13:37:32;22.30;99.90
54082;DHT22;39986;50.770;0.266;2023-04-01T13:45:29;22.70;99.90
54082;DHT22;39986;50.770;0.266;2023-04-01T13:48:13;22.80;99.90
54082;DHT22;39986;50.770;0.266;2023-04-01T13:56:02;20.00;99.90
54082;DHT22;39986;50.770;0.266;2023-04-01T13:58:38;19.10;99.90
54082;DHT22;39986;50.770;0.266;2023-04-01T14:04:08;22.00;99.90
54082;DHT22;39986;50.770;0.266;2023-04-01T14:19:49;25.90;97.10
54082;DHT22;39986;50.770;0.266;2023-04-01T14:30:14;23.60;99.90
54082;DHT22;39986;50.770;0.266;2023-04-01T14:51:10;28.70;92.60
54082;DHT22;39986;50.770;0.266;2023-04-01T14:53:36;30.60;91.20
54082;DHT22;39986;50.770;0.266;2023-04-01T14:56:04;33.40;87.20
54082;DHT22;39986;50.770;0.266;2023-04-01T15:04:14;33.00;68.60
54082;DHT22;39986;50.770;0.266;2023-04-01T15:09:08;26.50;86.20
54082;DHT22;39986;50.770;0.266;2023-04-01T15:14:10;26.20;96.60
54082;DHT22;39986;50.770;0.266;2023-04-01T15:16:49;29.20;88.10
54082;DHT22;39986;50.770;0.266;2023-04-01T15:19:31;30.90;79.30
54082;DHT22;39986;50.770;0.266;2023-04-01T15:30:13;29.60;77.10
54082;DHT22;39986;50.770;0.266;2023-04-01T15:35:12;25.70;86.10
54082;DHT22;39986;50.770;0.266;2023-04-01T15:40:44;23.20;97.60
54082;DHT22;39986;50.770;0.266;2023-04-01T15:43:20;22.20;99.90
54082;DHT22;39986;50.770;0.266;2023-04-01T15:46:09;21.30;99.90
54082;DHT22;39986;50.770;0.266;2023-04-01T16:00:02;17.60;99.90
54082;DHT22;39986;50.770;0.266;2023-04-01T16:02:32;17.00;99.90
54082;DHT22;39986;50.770;0.266;2023-04-01T16:05:03;16.70;99.90
54082;DHT22;39986;50.770;0.266;2023-04-01T16:18:14;16.30;99.90
54082;DHT22;39986;50.770;0.266;2023-04-01T16:21:19;16.50;99.90
54082;DHT22;39986;50.770;0.266;2023-04-01T16:23:37;16.60;99.90
54082;DHT22;39986;50.770;0.266;2023-04-01T16:28:53;16.70;99.90
54082;DHT22;39986;50.770;0.266;2023-04-01T16:33:58;16.50;99.90
54082;DHT22;39986;50.770;0.266;2023-04-01T16:36:28;16.30;99.90
54082;DHT22;39986;50.770;0.266;2023-04-01T16:39:15;16.30;99.90
54082;DHT22;39986;50.770;0.266;2023-04-01T16:41:48;16.00;99.90
54082;DHT22;39986;50.770;0.266;2023-04-01T16:44:18;15.80;99.90
54082;DHT22;39986;50.770;0.266;2023-04-01T16:46:46;15.80;99.90
54082;DHT22;39986;50.770;0.266;2023-04-01T16:57:04;15.70;99.90
54082;DHT22;39986;50.770;0.266;2023-04-01T17:02:23;15.40;99.90
54082;DHT22;39986;50.770;0.266;2023-04-01T17:07:25;15.10;99.90
54082;DHT22;39986;50.770;0.266;2023-04-01T17:17:54;14.60;99.90
54082;DHT22;39986;50.770;0.266;2023-04-01T17:23:30;14.30;99.90
54082;DHT22;39986;50.770;0.266;2023-04-01T17:25:57;14.10;99.90
54082;DHT22;39986;50.770;0.266;2023-04-01T17:39:19;13.50;99.90
54082;DHT22;39986;50.770;0.266;2023-04-01T17:41:51;13.40;99.90
54082;DHT22;39986;50.770;0.266;2023-04-01T17:49:36;13.30;99.90
54082;DHT22;39986;50.770;0.266;2023-04-01T17:52:18;13.20;99.90
54082;DHT22;39986;50.770;0.266;2023-04-01T17:54:46;13.10;99.90
54082;DHT22;39986;50.770;0.266;2023-04-01T17:57:24;13.20;99.90
54082;DHT22;39986;50.770;0.266;2023-04-01T18:02:27;13.10;99.90
54082;DHT22;39986;50.770;0.266;2023-04-01T18:07:43;12.90;99.90
54082;DHT22;39986;50.770;0.266;2023-04-01T18:21:18;12.80;99.90
54082;DHT22;39986;50.770;0.266;2023-04-01T18:23:54;12.70;99.90
54082;DHT22;39986;50.770;0.266;2023-04-01T18:29:04;12.50;99.90
54082;DHT22;39986;50.770;0.266;2023-04-01T18:32:22;12.50;99.90
54082;DHT22;39986;50.770;0.266;2023-04-01T18:34:39;12.30;99.90
54082;DHT22;39986;50.770;0.266;2023-04-01T18:37:17;12.20;99.90
54082;DHT22;39986;50.770;0.266;2023-04-01T18:39:49;12.20;99.90
54082;DHT22;39986;50.770;0.266;2023-04-01T18:42:19;12.20;99.90
54082;DHT22;39986;50.770;0.266;2023-04-01T18:50:11;12.10;99.90
54082;DHT22;39986;50.770;0.266;2023-04-01T18:52:40;12.10;99.90
54082;DHT22;39986;50.770;0.266;2023-04-01T18:58:19;11.90;99.90
54082;DHT22;39986;50.770;0.266;2023-04-01T19:00:37;11.90;99.90
54082;DHT22;39986;50.770;0.266;2023-04-01T19:03:48;11.90;99.90
54082;DHT22;39986;50.770;0.266;2023-04-01T19:05:53;11.90;99.90
54082;DHT22;39986;50.770;0.266;2023-04-01T19:08:28;11.80;99.90
54082;DHT22;39986;50.770;0.266;2023-04-01T19:18:59;11.80;99.90
54082;DHT22;39986;50.770;0.266;2023-04-01T19:23:58;11.70;99.90
54082;DHT22;39986;50.770;0.266;2023-04-01T19:26:27;11.80;99.90
54082;DHT22;39986;50.770;0.266;2023-04-01T19:29:03;11.80;99.90
54082;DHT22;39986;50.770;0.266;2023-04-01T19:46:45;11.70;99.90
54082;DHT22;39986;50.770;0.266;2023-04-01T19:49:19;11.70;99.90
54082;DHT22;39986;50.770;0.266;2023-04-01T19:51:59;11.70;99.90
54082;DHT22;39986;50.770;0.266;2023-04-01T20:01:53;11.60;99.90
54082;DHT22;39986;50.770;0.266;2023-04-01T20:04:41;11.50;99.90
54082;DHT22;39986;50.770;0.266;2023-04-01T20:15:00;11.40;99.90
54082;DHT22;39986;50.770;0.266;2023-04-01T20:22:37;11.30;99.90
54082;DHT22;39986;50.770;0.266;2023-04-01T20:25:12;11.40;99.90
54082;DHT22;39986;50.770;0.266;2023-04-01T20:27:40;11.40;99.90
54082;DHT22;39986;50.770;0.266;2023-04-01T20:32:48;11.50;99.90
54082;DHT22;39986;50.770;0.266;2023-04-01T20:35:35;11.40;99.90
54082;DHT22;39986;50.770;0.266;2023-04-01T20:40:57;11.40;99.90
54082;DHT22;39986;50.770;0.266;2023-04-01T20:43:33;11.30;99.90
54082;DHT22;39986;50.770;0.266;2023-04-01T20:48:31;11.50;99.90
54082;DHT22;39986;50.770;0.266;2023-04-01T20:53:43;11.30;99.90
54082;DHT22;39986;50.770;0.266;2023-04-01T20:58:54;11.10;99.90
54082;DHT22;39986;50.770;0.266;2023-04-01T21:04:35;11.00;99.90
54082;DHT22;39986;50.770;0.266;2023-04-01T21:09:49;11.00;99.90
54082;DHT22;39986;50.770;0.266;2023-04-01T21:14:53;10.60;99.90
54082;DHT22;39986;50.770;0.266;2023-04-01T21:17:45;10.50;99.90
54082;DHT22;39986;50.770;0.266;2023-04-01T21:23:03;10.50;99.90
54082;DHT22;39986;50.770;0.266;2023-04-01T21:35:56;10.30;99.90
54082;DHT22;39986;50.770;0.266;2023-04-01T21:38:34;10.30;99.90
54082;DHT22;39986;50.770;0.266;2023-04-01T21:49:01;10.30;99.90
54082;DHT22;39986;50.770;0.266;2023-04-01T21:54:27;10.40;99.90
54082;DHT22;39986;50.770;0.266;2023-04-01T22:07:15;10.50;99.90
54082;DHT22;39986;50.770;0.266;2023-04-01T22:10:05;10.60;99.90
54082;DHT22;39986;50.770;0.266;2023-04-01T22:25:10;10.50;99.90
54082;DHT22;39986;50.770;0.266;2023-04-01T22:35:25;10.50;99.90
54082;DHT22;39986;50.770;0.266;2023-04-01T22:37:54;10.40;99.90
54082;DHT22;39986;50.770;0.266;2023-04-01T22:42:53;10.40;99.90
54082;DHT22;39986;50.770;0.266;2023-04-01T22:50:40;10.30;99.90
54082;DHT22;39986;50.770;0.266;2023-04-01T22:55:37;10.00;99.90
54082;DHT22;39986;50.770;0.266;2023-04-01T22:58:04;10.00;99.90
54082;DHT22;39986;50.770;0.266;2023-04-01T23:00:35;9.90;99.90
54082;DHT22;39986;50.770;0.266;2023-04-01T23:06:12;9.80;99.90
54082;DHT22;39986;50.770;0.266;2023-04-01T23:08:48;9.90;99.90
54082;DHT22;39986;50.770;0.266;2023-04-01T23:11:23;9.80;99.90
54082;DHT22;39986;50.770;0.266;2023-04-01T23:13:56;9.90;99.90
54082;DHT22;39986;50.770;0.266;2023-04-01T23:16:31;9.90;99.90
54082;DHT22;39986;50.770;0.266;2023-04-01T23:19:08;9.80;99.90
54082;DHT22;39986;50.770;0.266;2023-04-01T23:24:18;9.90;99.90
54082;DHT22;39986;50.770;0.266;2023-04-01T23:29:14;10.00;99.90
54082;DHT22;39986;50.770;0.266;2023-04-01T23:31:41;10.00;99.90
54082;DHT22;39986;50.770;0.266;2023-04-01T23:36:43;10.00;99.90
54082;DHT22;39986;50.770;0.266;2023-04-01T23:39:19;10.00;99.90
54082;DHT22;39986;50.770;0.266;2023-04-01T23:41:46;10.00;99.90
54082;DHT22;39986;50.770;0.266;2023-04-01T23:44:12;9.90;99.90
54082;DHT22;39986;50.770;0.266;2023-04-01T23:46:39;9.80;99.90
54082;DHT22;39986;50.770;0.266;2023-04-01T23:49:06;9.90;99.90
54082;DHT22;39986;50.770;0.266;2023-04-01T23:51:38;9.90;99.90
54082;DHT22;39986;50.770;0.266;2023-04-01T23:54:13;9.90;99.90
54082;DHT22;39986;50.770;0.266;2023-04-01T23:56:51;9.90;99.90
54082;DHT22;39986;50.770;0.266;2023-04-01T23:59:18;9.90;99.90
